Time;durP1;ratioP1;P1;durP2;ratioP2;P2;SDS_P1;SDS_P2;PMS_P1;PMS_P2;Temp;Humidity;BMP_temperature;BMP_pressure;BME280_temperature;BME280_humidity;BME280_pressure;Samples;Min_cycle;Max_cycle;Signal;HPM_P1;HPM_P2
2023/07/10 00:03:11;;;;;;;5.30;3.70;;;;;;;23.33;84.51;101671.34;6128314;28;20638;-72
2023/07/10 00:06:31;;;;;;;3.78;2.58;;;;;;;23.36;84.56;101678.34;6115487;28;20732;-72
2023/07/10 00:09:53;;;;;;;3.90;3.30;;;;;;;23.23;84.18;101678.22;6129861;28;20227;-71
2023/07/10 00:13:21;;;;;;;4.07;3.67;;;;;;;23.25;84.21;101684.38;6133589;28;20231;-72
2023/07/10 00:16:42;;;;;;;3.70;3.30;;;;;;;23.21;84.73;101683.06;6126734;28;20239;-72
2023/07/10 00:20:09;;;;;;;4.80;3.42;;;;;;;23.20;84.95;101684.13;6135336;28;20318;-72
2023/07/10 00:23:30;;;;;;;9.55;3.53;;;;;;;23.00;84.72;101687.53;6117755;28;20300;-72
2023/07/10 00:26:51;;;;;;;5.13;3.83;;;;;;;22.88;85.50;101699.28;6085346;28;20363;-72
2023/07/10 00:30:20;;;;;;;4.57;3.25;;;;;;;22.85;86.01;101692.25;6113332;28;20261;-72
2023/07/10 00:33:41;;;;;;;5.72;3.92;;;;;;;22.90;85.65;101686.16;6120982;28;20231;-72
2023/07/10 00:37:02;;;;;;;4.72;3.55;;;;;;;23.05;85.38;101670.44;6117335;28;20239;-72
2023/07/10 00:40:23;;;;;;;4.68;3.95;;;;;;;23.13;85.50;101669.44;6114392;28;20318;-72
2023/07/10 00:43:48;;;;;;;11.65;4.05;;;;;;;23.20;85.21;101668.44;6130779;28;20280;-72
2023/07/10 00:47:18;;;;;;;5.15;3.60;;;;;;;23.18;84.35;101673.28;6120769;28;20243;-72
2023/07/10 00:50:45;;;;;;;4.05;3.65;;;;;;;23.13;84.35;101674.94;6126491;28;20691;-73
2023/07/10 00:54:20;;;;;;;7.75;3.38;;;;;;;23.16;84.44;101677.28;6134581;28;20706;-72
2023/07/10 00:57:43;;;;;;;4.97;4.15;;;;;;;23.20;84.69;101682.19;6136332;28;20235;-72
2023/07/10 01:01:08;;;;;;;4.13;3.67;;;;;;;23.01;84.90;101675.47;6125921;28;20246;-72
2023/07/10 01:04:30;;;;;;;7.03;4.38;;;;;;;22.60;86.67;101670.81;6118710;28;20238;-72
2023/07/10 01:07:58;;;;;;;4.35;3.28;;;;;;;22.95;86.84;101653.41;6117333;28;20242;-72
2023/07/10 01:11:20;;;;;;;9.15;4.45;;;;;;;22.98;86.58;101651.13;6134355;28;20243;-72
2023/07/10 01:14:41;;;;;;;3.45;3.15;;;;;;;23.05;86.42;101648.44;6124673;28;20227;-71
2023/07/10 01:18:02;;;;;;;5.90;4.18;;;;;;;23.03;86.38;101653.25;6128389;28;20239;-71
2023/07/10 01:21:28;;;;;;;7.10;3.80;;;;;;;22.63;86.71;101651.22;6124988;28;20238;-72
2023/07/10 01:24:52;;;;;;;4.85;3.40;;;;;;;22.83;87.28;101652.25;6108961;28;20232;-70
2023/07/10 01:28:17;;;;;;;6.25;3.55;;;;;;;23.01;86.89;101644.34;6124790;28;20232;-71
2023/07/10 01:31:39;;;;;;;5.22;3.83;;;;;;;22.78;87.37;101647.31;6125798;28;20317;-71
2023/07/10 01:35:04;;;;;;;3.20;2.88;;;;;;;22.90;86.97;101651.28;6119738;28;20235;-71
2023/07/10 01:38:35;;;;;;;3.58;2.80;;;;;;;22.98;86.26;101645.63;6125097;28;20231;-71
2023/07/10 01:41:56;;;;;;;5.55;3.35;;;;;;;23.14;85.99;101651.88;6115076;28;20229;-71
2023/07/10 01:45:17;;;;;;;4.13;3.20;;;;;;;23.05;86.10;101648.44;6120568;28;20250;-71
2023/07/10 01:48:38;;;;;;;3.78;3.30;;;;;;;23.02;85.94;101648.81;6116441;28;20247;-72
2023/07/10 01:52:03;;;;;;;5.20;4.05;;;;;;;22.95;86.23;101647.91;6116961;28;20243;-71
2023/07/10 01:55:30;;;;;;;4.55;3.10;;;;;;;22.48;87.42;101656.72;6123234;28;20807;-71
2023/07/10 01:58:52;;;;;;;5.53;3.72;;;;;;;22.64;88.11;101661.13;6125937;28;20358;-72
2023/07/10 02:02:13;;;;;;;9.20;3.83;;;;;;;22.49;88.71;101666.66;6123774;28;20232;-71
2023/07/10 02:05:34;;;;;;;5.07;3.38;;;;;;;22.34;89.57;101660.38;6105046;28;20224;-72
2023/07/10 02:08:55;;;;;;;8.13;3.10;;;;;;;22.67;89.25;101666.25;6130730;28;20219;-71
2023/07/10 02:12:17;;;;;;;6.85;3.33;;;;;;;22.68;88.57;101662.44;6114644;28;20240;-71
2023/07/10 02:15:39;;;;;;;3.38;3.08;;;;;;;22.79;88.58;101653.69;6110303;28;20227;-71
2023/07/10 02:19:00;;;;;;;10.15;4.10;;;;;;;22.88;88.09;101658.84;6128651;28;20262;-72
2023/07/10 02:22:21;;;;;;;4.07;3.60;;;;;;;23.03;87.84;101659.63;6111616;28;20239;-71
2023/07/10 02:25:42;;;;;;;4.50;3.90;;;;;;;22.97;87.25;101659.56;6125295;28;20230;-72
2023/07/10 02:29:05;;;;;;;4.90;3.13;;;;;;;23.02;86.99;101657.09;6121177;28;20232;-71
2023/07/10 02:32:25;;;;;;;7.55;4.10;;;;;;;23.01;87.29;101661.72;6116338;28;20242;-72
2023/07/10 02:35:48;;;;;;;5.13;3.78;;;;;;;22.92;87.35;101667.56;6122832;28;20274;-71
2023/07/10 02:39:09;;;;;;;7.22;4.38;;;;;;;22.90;87.28;101669.66;6127737;28;20416;-72
2023/07/10 02:42:30;;;;;;;6.57;4.00;;;;;;;22.93;87.41;101675.63;6107049;28;20233;-72
2023/07/10 02:45:53;;;;;;;3.50;3.00;;;;;;;22.95;86.78;101691.91;6122447;28;20234;-72
2023/07/10 02:49:14;;;;;;;8.55;4.00;;;;;;;22.90;86.40;101698.03;6133580;28;20253;-72
2023/07/10 02:52:35;;;;;;;12.27;4.43;;;;;;;23.05;86.44;101679.53;6101007;28;20246;-72
2023/07/10 02:55:56;;;;;;;4.20;3.80;;;;;;;22.96;86.65;101683.50;6113406;28;20612;-72
2023/07/10 02:59:16;;;;;;;4.60;3.22;;;;;;;22.93;86.67;101694.00;6129759;28;20700;-72
2023/07/10 03:02:39;;;;;;;5.07;3.97;;;;;;;22.13;87.64;101727.09;6097638;28;20239;-72
2023/07/10 03:06:01;;;;;;;5.18;4.68;;;;;;;21.87;89.63;101715.75;6117700;28;20604;-72
2023/07/10 03:09:22;;;;;;;4.40;4.03;;;;;;;22.43;90.00;101713.28;6107044;28;20646;-71
2023/07/10 03:12:43;;;;;;;5.93;3.30;;;;;;;22.57;89.30;101709.69;6106563;28;20236;-71
2023/07/10 03:16:06;;;;;;;9.55;4.20;;;;;;;22.60;87.86;101707.41;6127473;28;20809;-71
2023/07/10 03:19:32;;;;;;;4.80;3.97;;;;;;;22.46;88.47;101721.16;6133226;28;20258;-72
2023/07/10 03:22:53;;;;;;;4.80;4.40;;;;;;;21.98;89.66;101723.50;6124939;28;20246;-72
2023/07/10 03:26:14;;;;;;;4.85;3.60;;;;;;;22.27;89.98;101728.13;6122722;28;20273;-72
2023/07/10 03:29:36;;;;;;;7.93;5.13;;;;;;;22.23;89.97;101721.31;6117252;28;20235;-72
2023/07/10 03:32:57;;;;;;;4.13;3.83;;;;;;;21.89;91.18;101723.78;6119359;28;20235;-72
2023/07/10 03:36:19;;;;;;;4.80;3.92;;;;;;;21.89;92.09;101716.41;6126895;28;20243;-72
2023/07/10 03:39:40;;;;;;;31.60;27.15;;;;;;;22.31;91.92;101707.47;6130451;28;20238;-72
2023/07/10 03:43:01;;;;;;;7.70;7.00;;;;;;;22.33;91.21;101710.00;6133769;28;20227;-72
2023/07/10 03:46:22;;;;;;;7.78;6.57;;;;;;;22.34;90.56;101708.97;6119098;28;20586;-71
2023/07/10 03:49:43;;;;;;;7.43;6.70;;;;;;;22.50;90.57;101708.75;6111952;28;20244;-72
2023/07/10 03:53:05;;;;;;;6.55;5.07;;;;;;;22.39;90.37;101715.59;6120643;28;20254;-71
2023/07/10 03:56:26;;;;;;;5.20;4.65;;;;;;;22.31;90.62;101712.09;6127647;28;20269;-72
2023/07/10 03:59:47;;;;;;;6.13;5.63;;;;;;;22.42;90.44;101711.63;6125772;28;20258;-72
2023/07/10 04:03:08;;;;;;;43.40;39.33;;;;;;;22.48;89.93;101683.34;6109116;28;20860;-71
2023/07/10 04:06:29;;;;;;;9.65;8.80;;;;;;;22.58;89.76;101679.28;6126092;28;20234;-72
2023/07/10 04:09:53;;;;;;;17.45;14.02;;;;;;;22.61;89.96;101680.78;6120270;28;20227;-72
2023/07/10 04:13:14;;;;;;;9.73;8.82;;;;;;;22.54;89.81;101671.56;6129829;28;20251;-71
2023/07/10 04:16:34;;;;;;;29.73;26.92;;;;;;;22.59;89.36;101664.47;6124668;28;20574;-71
2023/07/10 04:19:55;;;;;;;10.70;9.52;;;;;;;22.69;89.19;101658.66;6120744;28;20724;-71
2023/07/10 04:23:18;;;;;;;5.60;4.97;;;;;;;22.69;88.89;101664.16;6123584;28;20227;-72
2023/07/10 04:26:40;;;;;;;6.65;5.28;;;;;;;22.58;89.42;101667.38;6118653;28;20242;-72
2023/07/10 04:30:01;;;;;;;5.57;5.03;;;;;;;22.66;89.76;101668.16;6116936;28;20600;-72
2023/07/10 04:33:22;;;;;;;9.63;8.63;;;;;;;22.60;89.46;101654.34;6139271;28;20251;-71
2023/07/10 04:36:43;;;;;;;7.80;6.07;;;;;;;22.75;88.98;101661.50;6123678;28;20275;-71
2023/07/10 04:40:04;;;;;;;16.85;15.23;;;;;;;22.84;88.80;101646.53;6122735;28;20623;-71
2023/07/10 04:43:28;;;;;;;14.45;12.98;;;;;;;22.81;88.93;101643.34;6139132;28;20585;-72
2023/07/10 04:46:49;;;;;;;8.40;7.53;;;;;;;22.80;89.06;101631.47;6132592;28;20238;-71
2023/07/10 04:50:10;;;;;;;7.55;6.95;;;;;;;22.90;88.52;101623.78;6127122;28;20247;-72
2023/07/10 04:53:32;;;;;;;8.35;6.20;;;;;;;22.92;88.34;101618.06;6131677;28;20235;-72
2023/07/10 04:56:53;;;;;;;7.82;6.50;;;;;;;22.84;88.23;101621.78;6119279;28;20309;-71
2023/07/10 05:00:16;;;;;;;6.63;5.65;;;;;;;22.99;88.72;101614.31;6125871;28;20743;-71
2023/07/10 05:03:38;;;;;;;5.32;4.45;;;;;;;23.04;87.66;101609.06;6120242;28;20337;-71
2023/07/10 05:07:02;;;;;;;5.80;4.50;;;;;;;23.03;88.20;101610.09;6123624;28;20329;-72
2023/07/10 05:10:24;;;;;;;7.22;6.40;;;;;;;23.07;87.56;101602.31;6107171;28;20235;-70
2023/07/10 05:13:44;;;;;;;11.63;9.23;;;;;;;23.24;87.18;101606.44;6125498;28;20235;-70
2023/07/10 05:17:07;;;;;;;6.13;5.47;;;;;;;23.18;87.14;101617.41;6125378;28;20222;-70
2023/07/10 05:20:27;;;;;;;5.97;5.38;;;;;;;23.12;86.70;101616.31;6124677;28;20232;-68
2023/07/10 05:23:49;;;;;;;9.38;7.80;;;;;;;23.09;87.14;101613.97;6122075;28;20569;-67
2023/07/10 05:27:09;;;;;;;9.73;8.80;;;;;;;23.11;87.07;101613.78;6113291;28;20827;-67
2023/07/10 05:30:30;;;;;;;6.90;6.22;;;;;;;23.33;86.88;101632.81;6106755;28;20242;-67
2023/07/10 05:33:53;;;;;;;6.38;5.78;;;;;;;23.49;86.91;101637.16;6123075;28;20231;-68
2023/07/10 05:37:13;;;;;;;5.85;4.65;;;;;;;23.37;85.47;101633.25;6121752;28;20366;-69
2023/07/10 05:40:34;;;;;;;4.97;4.50;;;;;;;23.55;85.00;101630.84;6098624;28;20236;-69
2023/07/10 05:43:55;;;;;;;5.22;4.72;;;;;;;23.57;84.54;101634.25;6124459;28;20674;-70
2023/07/10 05:47:16;;;;;;;8.73;5.72;;;;;;;23.63;84.86;101636.19;6125914;28;20227;-70
2023/07/10 05:50:38;;;;;;;5.32;4.75;;;;;;;23.77;84.32;101635.22;6122792;28;20323;-70
2023/07/10 05:53:59;;;;;;;6.10;5.50;;;;;;;23.82;84.21;101638.22;6142197;28;20227;-68
2023/07/10 05:57:20;;;;;;;6.82;5.30;;;;;;;24.09;83.84;101636.47;6129135;28;20235;-69
2023/07/10 06:00:42;;;;;;;5.03;4.60;;;;;;;23.81;83.44;101645.63;6115268;28;20234;-68
2023/07/10 06:04:03;;;;;;;5.57;4.70;;;;;;;24.05;83.51;101635.16;6119780;28;20251;-67
2023/07/10 06:07:25;;;;;;;8.38;7.57;;;;;;;23.67;84.10;101635.59;6136557;28;20689;-68
2023/07/10 06:10:46;;;;;;;8.00;7.20;;;;;;;23.96;84.70;101645.47;6108996;28;20637;-69
2023/07/10 06:14:07;;;;;;;8.82;5.18;;;;;;;24.33;84.15;101627.63;6120593;28;20236;-69
2023/07/10 06:17:28;;;;;;;5.93;5.10;;;;;;;24.42;83.51;101637.41;6128160;28;20296;-69
2023/07/10 06:20:53;;;;;;;4.30;3.90;;;;;;;24.16;82.97;101635.41;6118164;28;20235;-68
2023/07/10 06:24:15;;;;;;;4.88;4.32;;;;;;;24.07;83.26;101638.56;6126632;28;20235;-70
2023/07/10 06:27:36;;;;;;;4.63;4.22;;;;;;;23.97;83.19;101636.13;6120737;28;20250;-69
2023/07/10 06:30:59;;;;;;;5.97;4.15;;;;;;;24.12;83.38;101636.03;6116804;28;20365;-71
2023/07/10 06:34:20;;;;;;;5.95;5.05;;;;;;;23.95;83.54;101641.00;6123367;28;20235;-69
2023/07/10 06:37:42;;;;;;;4.30;3.90;;;;;;;24.09;83.50;101647.47;6124403;28;20243;-69
2023/07/10 06:41:07;;;;;;;6.63;4.35;;;;;;;23.78;83.75;101656.19;6116244;28;20289;-70
2023/07/10 06:44:28;;;;;;;7.38;5.38;;;;;;;23.61;84.81;101661.16;6128714;28;20355;-69
2023/07/10 06:47:48;;;;;;;8.43;5.65;;;;;;;23.22;85.71;101662.75;6116738;28;20700;-69
2023/07/10 06:51:09;;;;;;;7.13;5.55;;;;;;;23.13;86.50;101651.06;6116193;28;20762;-69
2023/07/10 06:54:30;;;;;;;6.75;5.88;;;;;;;23.37;87.29;101652.53;6111232;28;20673;-67
2023/07/10 06:57:52;;;;;;;7.45;6.80;;;;;;;23.16;87.46;101638.75;6125580;28;20227;-68
2023/07/10 07:01:13;;;;;;;8.63;5.85;;;;;;;22.76;89.10;101641.19;6107845;28;20633;-69
2023/07/10 07:04:34;;;;;;;9.93;7.40;;;;;;;22.97;89.65;101638.41;6114389;28;20259;-69
2023/07/10 07:07:55;;;;;;;7.13;6.53;;;;;;;23.00;89.83;101639.94;6112751;28;20841;-68
2023/07/10 07:11:16;;;;;;;8.80;6.78;;;;;;;22.84;90.81;101632.78;6124179;28;20231;-69
2023/07/10 07:14:38;;;;;;;7.55;6.88;;;;;;;22.27;90.96;101642.94;6112364;28;20240;-67
2023/07/10 07:17:59;;;;;;;7.03;6.35;;;;;;;22.44;91.28;101658.16;6122697;28;20218;-68
2023/07/10 07:21:20;;;;;;;7.75;7.13;;;;;;;22.66;91.19;101664.53;6134071;28;20230;-69
2023/07/10 07:24:42;;;;;;;6.68;6.18;;;;;;;23.08;90.55;101655.44;6136501;28;20235;-68
2023/07/10 07:28:03;;;;;;;9.30;8.10;;;;;;;22.61;90.82;101653.31;6132533;28;20298;-68
2023/07/10 07:31:25;;;;;;;7.70;6.95;;;;;;;22.87;90.42;101648.91;6113789;28;20234;-68
2023/07/10 07:34:47;;;;;;;6.40;5.43;;;;;;;23.34;89.65;101651.03;6120966;28;20613;-68
2023/07/10 07:38:07;;;;;;;8.27;6.43;;;;;;;23.50;88.25;101653.47;6107122;28;20232;-68
2023/07/10 07:41:28;;;;;;;5.97;5.38;;;;;;;23.85;86.56;101654.31;6125861;28;20231;-70
2023/07/10 07:44:49;;;;;;;6.28;5.60;;;;;;;23.45;86.66;101657.88;6116598;28;20259;-68
2023/07/10 07:48:11;;;;;;;5.80;5.20;;;;;;;23.78;86.42;101657.03;6133935;28;20247;-68
2023/07/10 07:51:32;;;;;;;5.43;4.70;;;;;;;24.00;85.66;101660.53;6104799;28;20613;-67
2023/07/10 07:54:53;;;;;;;5.43;4.43;;;;;;;23.86;85.68;101663.44;6111859;28;20236;-68
2023/07/10 07:58:14;;;;;;;4.88;4.47;;;;;;;23.60;85.55;101676.00;6129105;28;20498;-68
2023/07/10 08:01:35;;;;;;;5.28;4.78;;;;;;;23.58;85.95;101683.59;6108345;28;20259;-68
2023/07/10 08:04:59;;;;;;;4.22;3.83;;;;;;;23.38;85.87;101682.63;6118472;28;20239;-68
2023/07/10 08:08:21;;;;;;;4.45;4.05;;;;;;;23.13;86.27;101686.81;6133413;28;20235;-69
2023/07/10 08:11:42;;;;;;;5.53;5.03;;;;;;;23.11;87.27;101686.16;6123682;28;20227;-70
2023/07/10 08:15:04;;;;;;;8.95;4.95;;;;;;;23.11;87.08;101699.91;6110728;28;20255;-67
2023/07/10 08:18:25;;;;;;;5.55;5.05;;;;;;;23.01;86.31;101696.63;6133349;28;20247;-66
2023/07/10 08:22:11;;;;;;;5.13;4.18;;;;;;;22.96;85.91;101693.63;6122657;28;20238;-65
2023/07/10 08:25:32;;;;;;;5.93;4.13;;;;;;;22.72;87.23;101703.09;6126716;28;20247;-67
2023/07/10 08:28:53;;;;;;;5.85;5.15;;;;;;;22.96;87.51;101700.00;6131145;28;20232;-67
2023/07/10 08:32:14;;;;;;;6.07;5.15;;;;;;;22.92;87.41;101703.34;6132520;28;20245;-67
2023/07/10 08:35:35;;;;;;;8.70;5.32;;;;;;;22.96;87.31;101708.25;6110090;28;20325;-67
2023/07/10 08:38:57;;;;;;;6.18;4.97;;;;;;;23.06;87.64;101710.66;6139699;28;20260;-68
2023/07/10 08:42:22;;;;;;;6.15;5.28;;;;;;;23.19;86.55;101707.16;6130989;28;20489;-68
2023/07/10 08:45:47;;;;;;;4.68;3.85;;;;;;;23.38;86.22;101712.91;6102407;28;20230;-68
2023/07/10 08:49:17;;;;;;;7.57;4.53;;;;;;;22.86;86.67;101718.69;6119444;28;20242;-68
2023/07/10 08:52:44;;;;;;;5.60;4.15;;;;;;;23.02;86.72;101714.84;6112720;28;20244;-67
2023/07/10 08:56:21;;;;;;;7.15;4.95;;;;;;;22.93;87.32;101727.03;6112193;28;20325;-68
2023/07/10 08:59:48;;;;;;;5.97;5.30;;;;;;;22.98;87.08;101732.78;6106893;28;20236;-67
2023/07/10 09:03:20;;;;;;;6.00;4.07;;;;;;;23.01;87.21;101724.13;6113998;28;20238;-67
2023/07/10 09:06:44;;;;;;;5.47;4.85;;;;;;;23.96;85.09;101736.41;6124221;28;20518;-67
2023/07/10 09:10:09;;;;;;;4.13;3.72;;;;;;;24.29;82.52;101740.22;6111468;28;20327;-68
2023/07/10 09:13:44;;;;;;;7.43;4.60;;;;;;;24.13;81.74;101739.72;6139365;28;20227;-68
2023/07/10 09:17:17;;;;;;;6.82;4.45;;;;;;;24.35;81.24;101741.28;6129882;28;20230;-68
2023/07/10 09:20:38;;;;;;;5.18;3.03;;;;;;;24.28;80.27;101744.00;6127581;28;20592;-67
2023/07/10 09:23:59;;;;;;;10.43;7.00;;;;;;;24.74;79.45;101746.16;6139632;28;20255;-67
2023/07/10 09:27:20;;;;;;;5.18;3.83;;;;;;;24.97;78.47;101741.13;6139928;28;20235;-68
2023/07/10 09:30:52;;;;;;;4.60;4.03;;;;;;;24.85;75.67;101765.72;6132880;28;20708;-68
2023/07/10 09:34:13;;;;;;;6.43;3.70;;;;;;;24.60;75.46;101764.53;6127522;28;20234;-68
2023/07/10 09:37:36;;;;;;;5.43;3.65;;;;;;;24.69;75.80;101757.78;6117941;28;20286;-68
2023/07/10 09:40:57;;;;;;;6.57;4.75;;;;;;;25.00;75.31;101757.25;6130259;28;20502;-68
2023/07/10 09:44:20;;;;;;;8.45;3.63;;;;;;;24.94;74.15;101753.44;6127962;28;20240;-67
2023/07/10 09:47:50;;;;;;;4.28;3.45;;;;;;;24.73;73.57;101759.06;6134858;28;20313;-68
2023/07/10 09:51:12;;;;;;;3.40;2.88;;;;;;;24.89;72.68;101778.03;6132443;28;20242;-68
2023/07/10 09:54:36;;;;;;;3.97;2.50;;;;;;;24.72;73.15;101773.06;6130974;28;20227;-67
2023/07/10 09:58:00;;;;;;;3.47;3.17;;;;;;;24.99;72.92;101780.41;6124002;28;20240;-67
2023/07/10 10:01:25;;;;;;;5.32;4.80;;;;;;;25.54;71.95;101781.97;6101848;28;20270;-67
2023/07/10 10:04:52;;;;;;;4.85;3.33;;;;;;;25.24;71.42;101778.75;6108877;28;20231;-67
2023/07/10 10:08:21;;;;;;;3.55;3.17;;;;;;;25.92;70.60;101772.84;6118476;28;20235;-67
2023/07/10 10:11:46;;;;;;;2.05;1.48;;;;;;;25.50;67.92;101770.53;6131301;28;20234;-68
2023/07/10 10:15:17;;;;;;;2.10;1.90;;;;;;;25.88;67.34;101771.56;6135051;28;20275;-68
2023/07/10 10:18:44;;;;;;;4.65;2.90;;;;;;;25.99;66.61;101759.03;6134624;28;20235;-68
2023/07/10 10:22:11;;;;;;;4.15;2.65;;;;;;;25.99;66.57;101781.97;6115296;28;20231;-67
2023/07/10 10:25:41;;;;;;;2.83;1.73;;;;;;;26.17;65.08;101772.19;6097711;28;20238;-67
2023/07/10 10:29:22;;;;;;;2.35;1.73;;;;;;;26.44;63.29;101784.88;6107439;28;20530;-66
2023/07/10 10:32:50;;;;;;;4.15;2.75;;;;;;;26.42;65.39;101776.78;6119594;28;20511;-68
2023/07/10 10:36:22;;;;;;;3.22;2.20;;;;;;;26.85;63.07;101779.81;6104056;28;20253;-67
2023/07/10 10:39:53;;;;;;;2.17;2.03;;;;;;;26.90;62.81;101786.41;6125767;28;20239;-66
2023/07/10 10:43:41;;;;;;;3.80;2.42;;;;;;;26.40;63.81;101790.00;6122932;28;20602;-65
2023/07/10 10:47:17;;;;;;;2.20;1.70;;;;;;;27.21;63.99;101781.94;6126614;28;20696;-66
2023/07/10 10:50:54;;;;;;;3.95;2.92;;;;;;;26.75;64.26;101793.28;6108839;28;20223;-66
2023/07/10 10:54:25;;;;;;;1.90;1.73;;;;;;;26.48;65.60;101802.72;6114175;28;20263;-66
2023/07/10 10:57:58;;;;;;;2.20;2.00;;;;;;;26.59;63.45;101804.81;6113246;28;20227;-66
2023/07/10 11:01:32;;;;;;;2.70;2.28;;;;;;;26.61;63.28;101810.97;6119297;28;20251;-66
2023/07/10 11:05:02;;;;;;;2.28;2.08;;;;;;;26.28;63.33;101808.34;6110923;28;20720;-67
2023/07/10 11:08:27;;;;;;;2.90;2.03;;;;;;;26.07;62.83;101808.53;6131061;28;20242;-66
2023/07/10 11:11:48;;;;;;;2.45;2.10;;;;;;;25.88;63.44;101826.00;6131106;28;20649;-66
2023/07/10 11:15:17;;;;;;;3.75;2.45;;;;;;;25.83;63.43;101812.81;6121738;28;20278;-65
2023/07/10 11:18:39;;;;;;;3.85;2.30;;;;;;;25.57;63.18;101826.63;6104568;28;20240;-68
2023/07/10 11:22:10;;;;;;;1.90;1.80;;;;;;;25.85;62.38;101830.03;6122803;28;20230;-68
2023/07/10 11:25:34;;;;;;;3.25;2.50;;;;;;;26.48;62.00;101822.09;6122058;28;20321;-66
2023/07/10 11:28:57;;;;;;;4.18;2.60;;;;;;;26.71;61.11;101822.44;6133294;28;20227;-66
2023/07/10 11:32:20;;;;;;;2.72;1.52;;;;;;;26.41;61.55;101818.50;6124777;28;20545;-67
2023/07/10 11:36:11;;;;;;;2.45;2.22;;;;;;;26.11;61.83;101826.44;6116422;28;21033;-66
2023/07/10 11:39:33;;;;;;;3.63;2.42;;;;;;;26.44;62.53;101818.06;6113420;28;20642;-65
2023/07/10 11:42:54;;;;;;;2.85;2.60;;;;;;;26.59;61.51;101824.19;6128527;28;20227;-67
2023/07/10 11:46:24;;;;;;;2.30;2.10;;;;;;;26.47;62.25;101825.94;6121010;28;20557;-66
2023/07/10 11:50:13;;;;;;;4.90;2.85;;;;;;;27.24;58.67;101820.28;6117232;28;20261;-65
2023/07/10 11:53:34;;;;;;;1.88;1.67;;;;;;;26.63;57.08;101836.53;6132701;28;20243;-71
2023/07/10 11:57:10;;;;;;;1.90;1.67;;;;;;;27.25;56.40;101831.13;6127886;28;20313;-72
2023/07/10 12:00:41;;;;;;;2.67;1.98;;;;;;;27.17;57.12;101825.88;6129426;28;20512;-66
2023/07/10 12:04:13;;;;;;;2.65;1.85;;;;;;;27.31;56.45;101829.38;6130533;28;20243;-66
2023/07/10 12:07:36;;;;;;;3.42;2.03;;;;;;;26.67;54.95;101823.94;6135394;28;20317;-72
2023/07/10 12:10:57;;;;;;;2.30;1.23;;;;;;;26.35;55.51;101831.25;6119935;28;20234;-68
2023/07/10 12:14:18;;;;;;;1.30;1.20;;;;;;;26.46;55.07;101822.31;6122053;28;20239;-67
2023/07/10 12:17:41;;;;;;;4.03;2.00;;;;;;;26.95;53.94;101829.19;6128507;28;20236;-68
2023/07/10 12:21:05;;;;;;;1.92;1.60;;;;;;;26.87;53.90;101833.03;6122444;28;20230;-66
2023/07/10 12:24:29;;;;;;;2.55;2.03;;;;;;;26.91;54.09;101831.56;6125347;28;20656;-69
2023/07/10 12:27:50;;;;;;;2.13;2.03;;;;;;;27.49;53.01;101841.47;6121020;28;20235;-67
2023/07/10 12:31:14;;;;;;;4.22;1.70;;;;;;;27.72;52.22;101831.72;6132283;28;20267;-67
2023/07/10 12:34:35;;;;;;;2.47;1.88;;;;;;;27.16;50.92;101838.00;6124720;28;20231;-68
2023/07/10 12:37:58;;;;;;;3.65;2.22;;;;;;;26.62;51.88;101830.13;6132652;28;20239;-68
2023/07/10 12:41:22;;;;;;;1.95;1.65;;;;;;;27.92;52.08;101855.41;6136616;28;20553;-68
2023/07/10 12:44:45;;;;;;;1.30;1.20;;;;;;;28.22;50.66;101844.50;6122512;28;22224;-68
2023/07/10 12:48:11;;;;;;;2.17;1.40;;;;;;;27.76;50.86;101833.81;6129467;28;20696;-69
2023/07/10 12:51:37;;;;;;;1.58;1.27;;;;;;;27.46;49.90;101849.38;6127014;28;20230;-64
2023/07/10 12:54:58;;;;;;;2.72;1.75;;;;;;;26.93;51.21;101851.56;6114581;28;20605;-66
2023/07/10 12:58:22;;;;;;;5.28;2.80;;;;;;;27.26;51.56;101851.38;6140131;28;20380;-70
2023/07/10 13:01:49;;;;;;;4.05;1.50;;;;;;;26.66;52.85;101853.53;6122865;28;20314;-67
2023/07/10 13:05:20;;;;;;;2.03;1.52;;;;;;;26.92;53.39;101867.31;6127777;28;20601;-67
2023/07/10 13:08:41;;;;;;;1.88;1.60;;;;;;;27.09;53.56;101847.44;6127373;28;20236;-66
2023/07/10 13:12:05;;;;;;;1.80;1.70;;;;;;;27.86;52.41;101852.69;6124678;28;20627;-67
2023/07/10 13:15:35;;;;;;;2.95;1.70;;;;;;;28.37;48.89;101854.16;6117933;28;20365;-69
2023/07/10 13:18:56;;;;;;;1.63;1.23;;;;;;;28.02;48.02;101853.00;6125143;28;20633;-64
2023/07/10 13:22:17;;;;;;;1.33;1.13;;;;;;;29.42;45.03;101869.56;6136885;28;20223;-67
2023/07/10 13:25:38;;;;;;;1.65;1.30;;;;;;;29.71;44.04;101859.50;6120877;28;20234;-66
2023/07/10 13:28:59;;;;;;;4.80;2.05;;;;;;;30.10;44.17;101866.38;6122086;28;20758;-67
2023/07/10 13:32:22;;;;;;;2.72;1.33;;;;;;;31.19;42.44;101861.66;6129862;28;20239;-70
2023/07/10 13:35:42;;;;;;;3.53;1.20;;;;;;;29.26;45.56;101878.56;6124756;28;20728;-72
2023/07/10 13:39:10;;;;;;;2.42;1.92;;;;;;;31.17;43.77;101865.78;6122108;28;20504;-68
2023/07/10 13:42:31;;;;;;;1.25;1.15;;;;;;;31.41;39.88;101873.84;6144166;28;20518;-70
2023/07/10 13:45:54;;;;;;;3.58;2.40;;;;;;;30.84;42.42;101872.03;6123933;28;20231;-68
2023/07/10 13:49:16;;;;;;;4.18;1.63;;;;;;;31.06;41.29;101877.84;6131197;28;20271;-69
2023/07/10 13:52:37;;;;;;;2.00;1.00;;;;;;;30.24;41.31;101876.19;6144508;28;20223;-69
2023/07/10 13:55:58;;;;;;;1.35;1.13;;;;;;;32.57;40.45;101880.59;6135128;28;20242;-68
2023/07/10 13:59:20;;;;;;;1.75;1.20;;;;;;;30.92;40.47;101879.22;6134001;28;20227;-69
2023/07/10 14:02:46;;;;;;;2.22;1.27;;;;;;;30.79;41.27;101878.34;6135396;28;20501;-69
2023/07/10 14:06:30;;;;;;;2.25;1.08;;;;;;;31.61;40.67;101880.88;6128505;28;20227;-70
2023/07/10 14:09:54;;;;;;;4.13;1.35;;;;;;;30.68;40.14;101886.72;6124399;28;20231;-69
2023/07/10 14:13:14;;;;;;;2.10;1.20;;;;;;;30.09;41.68;101886.94;6148012;28;20582;-72
2023/07/10 14:16:35;;;;;;;6.05;5.47;;;;;;;29.65;42.71;101888.25;6127755;28;20291;-70
2023/07/10 14:19:56;;;;;;;3.08;1.42;;;;;;;29.44;42.18;101875.72;6117851;28;20227;-69
2023/07/10 14:23:23;;;;;;;1.90;0.75;;;;;;;28.79;41.19;101876.59;6127765;28;20236;-70
2023/07/10 14:26:44;;;;;;;3.08;1.13;;;;;;;28.87;41.84;101885.44;6107916;28;20326;-70
2023/07/10 14:30:06;;;;;;;2.47;1.42;;;;;;;28.23;40.56;101871.16;6094178;28;20227;-69
2023/07/10 14:33:27;;;;;;;1.25;1.15;;;;;;;27.97;41.54;101888.91;6113513;28;20254;-68
2023/07/10 14:36:48;;;;;;;1.55;1.45;;;;;;;28.06;41.64;101875.59;6130141;28;20591;-70
2023/07/10 14:40:14;;;;;;;1.55;0.98;;;;;;;28.46;41.37;101874.13;6119477;28;20273;-70
2023/07/10 14:43:35;;;;;;;1.50;1.17;;;;;;;28.48;41.37;101878.38;6122244;28;20235;-69
2023/07/10 14:46:56;;;;;;;2.65;1.30;;;;;;;29.02;40.76;101874.78;6118764;28;20236;-68
2023/07/10 14:50:20;;;;;;;2.17;1.38;;;;;;;29.40;41.19;101876.44;6102175;28;20230;-69
2023/07/10 14:53:41;;;;;;;2.70;1.25;;;;;;;29.39;40.87;101878.38;6119013;28;20232;-72
2023/07/10 14:57:04;;;;;;;3.97;2.10;;;;;;;28.60;40.33;101869.34;6111263;28;20247;-72
2023/07/10 15:00:27;;;;;;;3.08;1.90;;;;;;;28.80;40.84;101865.25;6111699;28;20581;-72
2023/07/10 15:03:48;;;;;;;3.33;1.67;;;;;;;29.72;41.51;101862.06;6131574;28;20235;-72
2023/07/10 15:07:12;;;;;;;2.67;1.38;;;;;;;29.53;40.24;101852.09;6129485;28;20231;-73
2023/07/10 15:10:33;;;;;;;8.80;5.82;;;;;;;30.09;41.53;101853.53;6116486;28;20247;-73
2023/07/10 15:13:55;;;;;;;1.02;0.80;;;;;;;29.43;40.44;101849.03;6137105;28;20235;-73
2023/07/10 15:17:18;;;;;;;2.25;1.92;;;;;;;28.93;41.79;101847.56;6118803;28;20607;-73
2023/07/10 15:20:39;;;;;;;4.82;3.00;;;;;;;28.81;42.45;101857.78;6126249;28;20233;-72
2023/07/10 15:24:00;;;;;;;1.00;0.93;;;;;;;28.13;42.62;101852.28;6121738;28;20231;-72
2023/07/10 15:27:21;;;;;;;6.70;4.40;;;;;;;28.23;43.26;101863.69;6123658;28;20642;-72
2023/07/10 15:30:43;;;;;;;4.47;2.28;;;;;;;28.29;43.57;101850.81;6120025;28;20231;-72
2023/07/10 15:34:13;;;;;;;2.38;1.77;;;;;;;28.01;44.06;101839.38;6125211;28;20247;-72
2023/07/10 15:37:33;;;;;;;2.55;1.75;;;;;;;28.37;43.98;101840.28;6130380;28;20230;-73
2023/07/10 15:40:57;;;;;;;3.78;2.30;;;;;;;29.04;43.18;101835.66;6122301;28;20239;-72
2023/07/10 15:44:18;;;;;;;1.52;0.95;;;;;;;29.06;42.22;101839.06;6124610;28;21038;-72
2023/07/10 15:47:40;;;;;;;4.40;1.13;;;;;;;28.84;42.53;101838.72;6133354;28;20648;-73